<?xml version="1.0" encoding="UTF-8" standalone="no" ?>
<gpx xmlns="http://www.topografix.com/GPX/1/1" xmlns:xsi="http://www.w3.org/2001/XMLSchema-instance" xsi:schemaLocation="http://www.topografix.com/GPX/1/1 http://www.topografix.com/GPX/1/1/gpx.xsd" version="1.1" creator="VisuGPX - https://www.visugpx.com">
  <metadata>
    <name>Chenecey-Buillon_Les Granges</name>
  </metadata>
  <trk>
    <name><![CDATA[Chenecey-Buillon_Les Granges]]></name>
    <trkseg>
      <trkpt lat="47.13911" lon="5.95819">
        <ele>280.180078</ele>
        <time>2022-01-16T14:59:04.019Z</time>
      </trkpt>
      <trkpt lat="47.13947" lon="5.95784">
        <ele>280.180078</ele>
        <time>2022-01-16T14:59:48.918Z</time>
      </trkpt>
      <trkpt lat="47.13959" lon="5.95775">
        <ele>280.180078</ele>
        <time>2022-01-16T15:00:04.319Z</time>
      </trkpt>
      <trkpt lat="47.13969" lon="5.95807">
        <ele>280.180078</ele>
        <time>2022-01-16T15:00:29.847Z</time>
      </trkpt>
      <trkpt lat="47.13984" lon="5.95861">
        <ele>282.652553</ele>
        <time>2022-01-16T15:01:16.654Z</time>
      </trkpt>
      <trkpt lat="47.14008" lon="5.95943">
        <ele>287.593483</ele>
        <time>2022-01-16T15:02:31.090Z</time>
      </trkpt>
      <trkpt lat="47.14012" lon="5.95955">
        <ele>288.356188</ele>
        <time>2022-01-16T15:02:42.280Z</time>
      </trkpt>
      <trkpt lat="47.14014" lon="5.95977">
        <ele>289.582639</ele>
        <time>2022-01-16T15:03:06.457Z</time>
      </trkpt>
      <trkpt lat="47.14019" lon="5.96005">
        <ele>291.175434</ele>
        <time>2022-01-16T15:03:29.730Z</time>
      </trkpt>
      <trkpt lat="47.14018" lon="5.9601">
        <ele>291.45513</ele>
        <time>2022-01-16T15:03:35.531Z</time>
      </trkpt>
      <trkpt lat="47.14023" lon="5.96013">
        <ele>291.909428</ele>
        <time>2022-01-16T15:03:46.603Z</time>
      </trkpt>
      <trkpt lat="47.14053" lon="5.96013">
        <ele>294.316626</ele>
        <time>2022-01-16T15:04:24.473Z</time>
      </trkpt>
      <trkpt lat="47.14059" lon="5.96016">
        <ele>294.941044</ele>
        <time>2022-01-16T15:04:39.412Z</time>
      </trkpt>
      <trkpt lat="47.14088" lon="5.96049">
        <ele>299.935215</ele>
        <time>2022-01-16T15:05:34.136Z</time>
      </trkpt>
      <trkpt lat="47.14118" lon="5.96062">
        <ele>304.187378</ele>
        <time>2022-01-16T15:06:18.529Z</time>
      </trkpt>
      <trkpt lat="47.14132" lon="5.96076">
        <ele>306.424452</ele>
        <time>2022-01-16T15:06:47.007Z</time>
      </trkpt>
      <trkpt lat="47.14186" lon="5.96102">
        <ele>314.263238</ele>
        <time>2022-01-16T15:08:15.750Z</time>
      </trkpt>
      <trkpt lat="47.14223" lon="5.96138">
        <ele>320.273867</ele>
        <time>2022-01-16T15:09:27.694Z</time>
      </trkpt>
      <trkpt lat="47.14277" lon="5.96218">
        <ele>330.817887</ele>
        <time>2022-01-16T15:11:33.212Z</time>
      </trkpt>
      <trkpt lat="47.14283" lon="5.96235">
        <ele>332.590075</ele>
        <time>2022-01-16T15:11:56.162Z</time>
      </trkpt>
      <trkpt lat="47.14292" lon="5.96264">
        <ele>335.605613</ele>
        <time>2022-01-16T15:12:27.557Z</time>
      </trkpt>
      <trkpt lat="47.14302" lon="5.96285">
        <ele>338.033248</ele>
        <time>2022-01-16T15:12:57.046Z</time>
      </trkpt>
      <trkpt lat="47.14323" lon="5.96329">
        <ele>342.987752</ele>
        <time>2022-01-16T15:13:49.388Z</time>
      </trkpt>
      <trkpt lat="47.14371" lon="5.96518">
        <ele>355.967908</ele>
        <time>2022-01-16T15:16:54.084Z</time>
      </trkpt>
      <trkpt lat="47.14389" lon="5.96682">
        <ele>363.142519</ele>
        <time>2022-01-16T15:19:09.877Z</time>
      </trkpt>
      <trkpt lat="47.14388" lon="5.9671">
        <ele>363.897974</ele>
        <time>2022-01-16T15:19:32.065Z</time>
      </trkpt>
      <trkpt lat="47.14384" lon="5.96744">
        <ele>364.820406</ele>
        <time>2022-01-16T15:19:57.737Z</time>
      </trkpt>
      <trkpt lat="47.1436" lon="5.96794">
        <ele>366.485606</ele>
        <time>2022-01-16T15:20:43.970Z</time>
      </trkpt>
      <trkpt lat="47.14357" lon="5.96826">
        <ele>367.360489</ele>
        <time>2022-01-16T15:21:07.575Z</time>
      </trkpt>
      <trkpt lat="47.14357" lon="5.96831">
        <ele>367.511447</ele>
        <time>2022-01-16T15:21:11.578Z</time>
      </trkpt>
      <trkpt lat="47.1436" lon="5.96866">
        <ele>368.102694</ele>
        <time>2022-01-16T15:21:37.487Z</time>
      </trkpt>
      <trkpt lat="47.14374" lon="5.9692">
        <ele>368.77634</ele>
        <time>2022-01-16T15:22:18.405Z</time>
      </trkpt>
      <trkpt lat="47.14408" lon="5.96998">
        <ele>369.855337</ele>
        <time>2022-01-16T15:23:23.185Z</time>
      </trkpt>
      <trkpt lat="47.14426" lon="5.97069">
        <ele>370.745672</ele>
        <time>2022-01-16T15:24:18.177Z</time>
      </trkpt>
      <trkpt lat="47.14433" lon="5.9713">
        <ele>372.361801</ele>
        <time>2022-01-16T15:25:03.710Z</time>
      </trkpt>
      <trkpt lat="47.14467" lon="5.97103">
        <ele>374.119578</ele>
        <time>2022-01-16T15:25:48.665Z</time>
      </trkpt>
      <trkpt lat="47.14493" lon="5.97103">
        <ele>375.285192</ele>
        <time>2022-01-16T15:26:19.441Z</time>
      </trkpt>
      <trkpt lat="47.14532" lon="5.97133">
        <ele>377.255825</ele>
        <time>2022-01-16T15:27:10.802Z</time>
      </trkpt>
      <trkpt lat="47.14555" lon="5.97183">
        <ele>379.142467</ele>
        <time>2022-01-16T15:28:00.048Z</time>
      </trkpt>
      <trkpt lat="47.14556" lon="5.97193">
        <ele>379.550854</ele>
        <time>2022-01-16T15:28:09.240Z</time>
      </trkpt>
      <trkpt lat="47.1456" lon="5.97195">
        <ele>379.789482</ele>
        <time>2022-01-16T15:28:14.744Z</time>
      </trkpt>
      <trkpt lat="47.14591" lon="5.97209">
        <ele>381.684997</ele>
        <time>2022-01-16T15:28:53.667Z</time>
      </trkpt>
      <trkpt lat="47.14664" lon="5.97218">
        <ele>385.949591</ele>
        <time>2022-01-16T15:30:21.471Z</time>
      </trkpt>
      <trkpt lat="47.14724" lon="5.97172">
        <ele>389.869254</ele>
        <time>2022-01-16T15:31:43.686Z</time>
      </trkpt>
      <trkpt lat="47.14808" lon="5.97086">
        <ele>394.992535</ele>
        <time>2022-01-16T15:33:43.724Z</time>
      </trkpt>
      <trkpt lat="47.14825" lon="5.9705">
        <ele>396.461912</ele>
        <time>2022-01-16T15:34:19.058Z</time>
      </trkpt>
      <trkpt lat="47.14832" lon="5.97041">
        <ele>396.958963</ele>
        <time>2022-01-16T15:34:29.821Z</time>
      </trkpt>
      <trkpt lat="47.14839" lon="5.97029">
        <ele>397.472718</ele>
        <time>2022-01-16T15:34:43.229Z</time>
      </trkpt>
      <trkpt lat="47.14855" lon="5.97015">
        <ele>398.408098</ele>
        <time>2022-01-16T15:35:03.601Z</time>
      </trkpt>
      <trkpt lat="47.14872" lon="5.97009">
        <ele>398.921504</ele>
        <time>2022-01-16T15:35:25.296Z</time>
      </trkpt>
      <trkpt lat="47.1485" lon="5.97015">
        <ele>399.491798</ele>
        <time>2022-01-16T15:35:48.822Z</time>
      </trkpt>
      <trkpt lat="47.14847" lon="5.97012">
        <ele>399.584459</ele>
        <time>2022-01-16T15:35:52.969Z</time>
      </trkpt>
      <trkpt lat="47.1485" lon="5.97015">
        <ele>399.67712</ele>
        <time>2022-01-16T15:35:57.399Z</time>
      </trkpt>
      <trkpt lat="47.14872" lon="5.97009">
        <ele>400.247413</ele>
        <time>2022-01-16T15:36:22.679Z</time>
      </trkpt>
      <trkpt lat="47.14893" lon="5.96984">
        <ele>400.935848</ele>
        <time>2022-01-16T15:36:52.951Z</time>
      </trkpt>
      <trkpt lat="47.14902" lon="5.96962">
        <ele>401.377654</ele>
        <time>2022-01-16T15:37:10.557Z</time>
      </trkpt>
      <trkpt lat="47.14902" lon="5.96934">
        <ele>401.863025</ele>
        <time>2022-01-16T15:37:31.976Z</time>
      </trkpt>
      <trkpt lat="47.14915" lon="5.96892">
        <ele>402.660889</ele>
        <time>2022-01-16T15:38:04.110Z</time>
      </trkpt>
      <trkpt lat="47.14972" lon="5.96967">
        <ele>402.574158</ele>
        <time>2022-01-16T15:39:22.006Z</time>
      </trkpt>
      <trkpt lat="47.15055" lon="5.96982">
        <ele>401.794421</ele>
        <time>2022-01-16T15:40:48.716Z</time>
      </trkpt>
      <trkpt lat="47.1507" lon="5.97003">
        <ele>401.605704</ele>
        <time>2022-01-16T15:41:10.231Z</time>
      </trkpt>
      <trkpt lat="47.15078" lon="5.97046">
        <ele>401.215159</ele>
        <time>2022-01-16T15:41:41.921Z</time>
      </trkpt>
      <trkpt lat="47.15088" lon="5.97077">
        <ele>400.803435</ele>
        <time>2022-01-16T15:42:06.286Z</time>
      </trkpt>
      <trkpt lat="47.15093" lon="5.9709">
        <ele>400.625662</ele>
        <time>2022-01-16T15:42:17.075Z</time>
      </trkpt>
      <trkpt lat="47.15105" lon="5.97121">
        <ele>400.200991</ele>
        <time>2022-01-16T15:42:42.191Z</time>
      </trkpt>
      <trkpt lat="47.15128" lon="5.97176">
        <ele>399.437913</ele>
        <time>2022-01-16T15:43:27.443Z</time>
      </trkpt>
      <trkpt lat="47.15134" lon="5.97217">
        <ele>398.947415</ele>
        <time>2022-01-16T15:43:56.727Z</time>
      </trkpt>
      <trkpt lat="47.15153" lon="5.97235">
        <ele>398.558336</ele>
        <time>2022-01-16T15:44:19.921Z</time>
      </trkpt>
      <trkpt lat="47.15188" lon="5.97263">
        <ele>398.256889</ele>
        <time>2022-01-16T15:45:01.586Z</time>
      </trkpt>
      <trkpt lat="47.15212" lon="5.97273">
        <ele>398.198486</ele>
        <time>2022-01-16T15:45:26.667Z</time>
      </trkpt>
      <trkpt lat="47.15216" lon="5.97275">
        <ele>398.187112</ele>
        <time>2022-01-16T15:45:31.697Z</time>
      </trkpt>
      <trkpt lat="47.1521" lon="5.9728">
        <ele>398.17043</ele>
        <time>2022-01-16T15:45:39.144Z</time>
      </trkpt>
      <trkpt lat="47.15195" lon="5.97299">
        <ele>398.122975</ele>
        <time>2022-01-16T15:45:59.300Z</time>
      </trkpt>
      <trkpt lat="47.15181" lon="5.97317">
        <ele>398.078849</ele>
        <time>2022-01-16T15:46:18.106Z</time>
      </trkpt>
      <trkpt lat="47.15162" lon="5.97337">
        <ele>398.024216</ele>
        <time>2022-01-16T15:46:42.091Z</time>
      </trkpt>
      <trkpt lat="47.15143" lon="5.97368">
        <ele>397.957533</ele>
        <time>2022-01-16T15:47:11.030Z</time>
      </trkpt>
      <trkpt lat="47.15108" lon="5.97457">
        <ele>398.230952</ele>
        <time>2022-01-16T15:48:22.872Z</time>
      </trkpt>
      <trkpt lat="47.15094" lon="5.97474">
        <ele>398.372937</ele>
        <time>2022-01-16T15:48:41.343Z</time>
      </trkpt>
      <trkpt lat="47.15059" lon="5.97503">
        <ele>398.690533</ele>
        <time>2022-01-16T15:49:23.262Z</time>
      </trkpt>
      <trkpt lat="47.15023" lon="5.97526">
        <ele>398.994296</ele>
        <time>2022-01-16T15:50:03.776Z</time>
      </trkpt>
      <trkpt lat="47.15004" lon="5.97529">
        <ele>399.14663</ele>
        <time>2022-01-16T15:50:23.995Z</time>
      </trkpt>
      <trkpt lat="47.14957" lon="5.9752">
        <ele>398.853437</ele>
        <time>2022-01-16T15:51:12.217Z</time>
      </trkpt>
      <trkpt lat="47.14878" lon="5.97479">
        <ele>397.430401</ele>
        <time>2022-01-16T15:52:38.792Z</time>
      </trkpt>
      <trkpt lat="47.14838" lon="5.97466">
        <ele>396.747507</ele>
        <time>2022-01-16T15:53:21.887Z</time>
      </trkpt>
      <trkpt lat="47.14811" lon="5.97446">
        <ele>396.177537</ele>
        <time>2022-01-16T15:53:54.055Z</time>
      </trkpt>
      <trkpt lat="47.14807" lon="5.97444">
        <ele>395.951884</ele>
        <time>2022-01-16T15:53:58.774Z</time>
      </trkpt>
      <trkpt lat="47.14774" lon="5.97437">
        <ele>394.177737</ele>
        <time>2022-01-16T15:54:34.736Z</time>
      </trkpt>
      <trkpt lat="47.1475" lon="5.97422">
        <ele>392.756147</ele>
        <time>2022-01-16T15:55:04.602Z</time>
      </trkpt>
      <trkpt lat="47.14724" lon="5.97396">
        <ele>391.10076</ele>
        <time>2022-01-16T15:55:38.915Z</time>
      </trkpt>
      <trkpt lat="47.14719" lon="5.97392">
        <ele>390.806849</ele>
        <time>2022-01-16T15:55:45.611Z</time>
      </trkpt>
      <trkpt lat="47.14687" lon="5.9736">
        <ele>388.743036</ele>
        <time>2022-01-16T15:56:28.881Z</time>
      </trkpt>
      <trkpt lat="47.14684" lon="5.97357">
        <ele>388.539184</ele>
        <time>2022-01-16T15:56:33.238Z</time>
      </trkpt>
      <trkpt lat="47.14648" lon="5.97333">
        <ele>386.482188</ele>
        <time>2022-01-16T15:57:17.431Z</time>
      </trkpt>
      <trkpt lat="47.14635" lon="5.97328">
        <ele>385.821724</ele>
        <time>2022-01-16T15:57:32.253Z</time>
      </trkpt>
      <trkpt lat="47.14626" lon="5.9732">
        <ele>385.29745</ele>
        <time>2022-01-16T15:57:44.699Z</time>
      </trkpt>
      <trkpt lat="47.14625" lon="5.97318">
        <ele>385.220946</ele>
        <time>2022-01-16T15:57:46.619Z</time>
      </trkpt>
      <trkpt lat="47.14596" lon="5.97282">
        <ele>383.374746</ele>
        <time>2022-01-16T15:58:28.913Z</time>
      </trkpt>
      <trkpt lat="47.14568" lon="5.9727">
        <ele>381.973939</ele>
        <time>2022-01-16T15:59:00.760Z</time>
      </trkpt>
      <trkpt lat="47.14542" lon="5.97273">
        <ele>380.710927</ele>
        <time>2022-01-16T15:59:29.316Z</time>
      </trkpt>
      <trkpt lat="47.1452" lon="5.97283">
        <ele>379.596281</ele>
        <time>2022-01-16T15:59:54.235Z</time>
      </trkpt>
      <trkpt lat="47.14499" lon="5.97313">
        <ele>378.157806</ele>
        <time>2022-01-16T16:00:26.525Z</time>
      </trkpt>
      <trkpt lat="47.14465" lon="5.97344">
        <ele>377.388016</ele>
        <time>2022-01-16T16:01:09.063Z</time>
      </trkpt>
      <trkpt lat="47.14451" lon="5.97354">
        <ele>377.141518</ele>
        <time>2022-01-16T16:01:25.289Z</time>
      </trkpt>
      <trkpt lat="47.14456" lon="5.97369">
        <ele>376.959822</ele>
        <time>2022-01-16T16:01:37.227Z</time>
      </trkpt>
      <trkpt lat="47.14458" lon="5.97441">
        <ele>376.184091</ele>
        <time>2022-01-16T16:02:28.058Z</time>
      </trkpt>
      <trkpt lat="47.14463" lon="5.97472">
        <ele>375.841309</ele>
        <time>2022-01-16T16:02:50.119Z</time>
      </trkpt>
      <trkpt lat="47.1448" lon="5.97555">
        <ele>375.203875</ele>
        <time>2022-01-16T16:03:49.784Z</time>
      </trkpt>
      <trkpt lat="47.14482" lon="5.97578">
        <ele>375.305547</ele>
        <time>2022-01-16T16:04:05.769Z</time>
      </trkpt>
      <trkpt lat="47.1448" lon="5.97623">
        <ele>375.501928</ele>
        <time>2022-01-16T16:04:36.855Z</time>
      </trkpt>
      <trkpt lat="47.14513" lon="5.97669">
        <ele>375.797496</ele>
        <time>2022-01-16T16:05:23.979Z</time>
      </trkpt>
      <trkpt lat="47.14526" lon="5.977">
        <ele>375.958398</ele>
        <time>2022-01-16T16:05:49.580Z</time>
      </trkpt>
      <trkpt lat="47.14565" lon="5.97794">
        <ele>376.454255</ele>
        <time>2022-01-16T16:07:06.513Z</time>
      </trkpt>
      <trkpt lat="47.14585" lon="5.97845">
        <ele>376.739486</ele>
        <time>2022-01-16T16:07:48.561Z</time>
      </trkpt>
      <trkpt lat="47.14609" lon="5.97888">
        <ele>377.004354</ele>
        <time>2022-01-16T16:08:27.382Z</time>
      </trkpt>
      <trkpt lat="47.14641" lon="5.97926">
        <ele>377.296582</ele>
        <time>2022-01-16T16:09:09.880Z</time>
      </trkpt>
      <trkpt lat="47.14655" lon="5.97937">
        <ele>377.402714</ele>
        <time>2022-01-16T16:09:25.233Z</time>
      </trkpt>
      <trkpt lat="47.14673" lon="5.97951">
        <ele>377.547881</ele>
        <time>2022-01-16T16:09:46.166Z</time>
      </trkpt>
      <trkpt lat="47.14709" lon="5.97967">
        <ele>377.264754</ele>
        <time>2022-01-16T16:10:24.187Z</time>
      </trkpt>
      <trkpt lat="47.14734" lon="5.97986">
        <ele>377.057304</ele>
        <time>2022-01-16T16:10:52.276Z</time>
      </trkpt>
      <trkpt lat="47.14745" lon="5.98004">
        <ele>376.933664</ele>
        <time>2022-01-16T16:11:09.055Z</time>
      </trkpt>
      <trkpt lat="47.14761" lon="5.98074">
        <ele>376.557778</ele>
        <time>2022-01-16T16:12:00.476Z</time>
      </trkpt>
      <trkpt lat="47.14786" lon="5.9812">
        <ele>376.258402</ele>
        <time>2022-01-16T16:12:41.784Z</time>
      </trkpt>
      <trkpt lat="47.14818" lon="5.9814">
        <ele>375.428726</ele>
        <time>2022-01-16T16:13:17.527Z</time>
      </trkpt>
      <trkpt lat="47.14881" lon="5.98195">
        <ele>373.35073</ele>
        <time>2022-01-16T16:14:35.196Z</time>
      </trkpt>
      <trkpt lat="47.14921" lon="5.98218">
        <ele>372.133091</ele>
        <time>2022-01-16T16:15:21.668Z</time>
      </trkpt>
      <trkpt lat="47.14933" lon="5.98231">
        <ele>371.725263</ele>
        <time>2022-01-16T16:15:37.090Z</time>
      </trkpt>
      <trkpt lat="47.14961" lon="5.98294">
        <ele>370.161339</ele>
        <time>2022-01-16T16:16:32.487Z</time>
      </trkpt>
      <trkpt lat="47.14974" lon="5.9831">
        <ele>369.62739</ele>
        <time>2022-01-16T16:16:50.246Z</time>
      </trkpt>
      <trkpt lat="47.1499" lon="5.98319">
        <ele>369.073491</ele>
        <time>2022-01-16T16:17:08.938Z</time>
      </trkpt>
      <trkpt lat="47.15025" lon="5.98331">
        <ele>367.91165</ele>
        <time>2022-01-16T16:17:47.844Z</time>
      </trkpt>
      <trkpt lat="47.15046" lon="5.98346">
        <ele>367.162988</ele>
        <time>2022-01-16T16:18:12.682Z</time>
      </trkpt>
      <trkpt lat="47.15079" lon="5.98388">
        <ele>365.771301</ele>
        <time>2022-01-16T16:18:58.932Z</time>
      </trkpt>
      <trkpt lat="47.15127" lon="5.9842">
        <ele>364.823563</ele>
        <time>2022-01-16T16:19:53.860Z</time>
      </trkpt>
      <trkpt lat="47.15144" lon="5.98475">
        <ele>364.24287</ele>
        <time>2022-01-16T16:20:36.773Z</time>
      </trkpt>
      <trkpt lat="47.1515" lon="5.9853">
        <ele>363.716368</ele>
        <time>2022-01-16T16:21:15.193Z</time>
      </trkpt>
      <trkpt lat="47.15159" lon="5.98563">
        <ele>363.382436</ele>
        <time>2022-01-16T16:21:39.570Z</time>
      </trkpt>
      <trkpt lat="47.15173" lon="5.98585">
        <ele>363.090095</ele>
        <time>2022-01-16T16:22:00.814Z</time>
      </trkpt>
      <trkpt lat="47.15245" lon="5.98618">
        <ele>362.589063</ele>
        <time>2022-01-16T16:23:16.975Z</time>
      </trkpt>
      <trkpt lat="47.15369" lon="5.98695">
        <ele>362.159042</ele>
        <time>2022-01-16T16:25:33.109Z</time>
      </trkpt>
      <trkpt lat="47.15396" lon="5.9872">
        <ele>362.475129</ele>
        <time>2022-01-16T16:26:04.903Z</time>
      </trkpt>
      <trkpt lat="47.15431" lon="5.9876">
        <ele>362.919057</ele>
        <time>2022-01-16T16:26:51.197Z</time>
      </trkpt>
      <trkpt lat="47.15457" lon="5.98846">
        <ele>363.55227</ele>
        <time>2022-01-16T16:27:57.710Z</time>
      </trkpt>
      <trkpt lat="47.15466" lon="5.98863">
        <ele>363.70425</ele>
        <time>2022-01-16T16:28:13.981Z</time>
      </trkpt>
      <trkpt lat="47.15479" lon="5.98875">
        <ele>363.922694</ele>
        <time>2022-01-16T16:28:29.823Z</time>
      </trkpt>
      <trkpt lat="47.15473" lon="5.98887">
        <ele>364.159777</ele>
        <time>2022-01-16T16:28:41.375Z</time>
      </trkpt>
      <trkpt lat="47.1547" lon="5.98899">
        <ele>364.368442</ele>
        <time>2022-01-16T16:28:50.424Z</time>
      </trkpt>
      <trkpt lat="47.15473" lon="5.98953">
        <ele>365.256344</ele>
        <time>2022-01-16T16:29:30.526Z</time>
      </trkpt>
      <trkpt lat="47.15463" lon="5.99092">
        <ele>367.542723</ele>
        <time>2022-01-16T16:31:15.064Z</time>
      </trkpt>
      <trkpt lat="47.15456" lon="5.99185">
        <ele>368.665879</ele>
        <time>2022-01-16T16:32:23.408Z</time>
      </trkpt>
      <trkpt lat="47.15377" lon="5.99517">
        <ele>371.697058</ele>
        <time>2022-01-16T16:36:31.409Z</time>
      </trkpt>
      <trkpt lat="47.15323" lon="5.99646">
        <ele>373.077996</ele>
        <time>2022-01-16T16:38:18.831Z</time>
      </trkpt>
      <trkpt lat="47.15115" lon="5.99905">
        <ele>379.46466</ele>
        <time>2022-01-16T16:43:13.909Z</time>
      </trkpt>
      <trkpt lat="47.15107" lon="5.99914">
        <ele>379.749014</ele>
        <time>2022-01-16T16:43:26.607Z</time>
      </trkpt>
      <trkpt lat="47.15064" lon="5.9996">
        <ele>381.188587</ele>
        <time>2022-01-16T16:44:24.821Z</time>
      </trkpt>
      <trkpt lat="47.14914" lon="6.00085">
        <ele>386.057077</ele>
        <time>2022-01-16T16:47:35.751Z</time>
      </trkpt>
      <trkpt lat="47.14912" lon="6.00087">
        <ele>386.129116</ele>
        <time>2022-01-16T16:47:39.508Z</time>
      </trkpt>
      <trkpt lat="47.14854" lon="6.00135">
        <ele>387.42918</ele>
        <time>2022-01-16T16:48:48.254Z</time>
      </trkpt>
      <trkpt lat="47.1481" lon="6.0017">
        <ele>388.360186</ele>
        <time>2022-01-16T16:49:42.440Z</time>
      </trkpt>
      <trkpt lat="47.14751" lon="6.00217">
        <ele>389.597804</ele>
        <time>2022-01-16T16:50:52.843Z</time>
      </trkpt>
      <trkpt lat="47.1473" lon="6.00234">
        <ele>390.057229</ele>
        <time>2022-01-16T16:51:18.411Z</time>
      </trkpt>
      <trkpt lat="47.14705" lon="6.00267">
        <ele>390.698895</ele>
        <time>2022-01-16T16:51:54.215Z</time>
      </trkpt>
      <trkpt lat="47.14644" lon="6.00397">
        <ele>392.754958</ele>
        <time>2022-01-16T16:53:50.058Z</time>
      </trkpt>
      <trkpt lat="47.14643" lon="6.00411">
        <ele>392.933027</ele>
        <time>2022-01-16T16:54:00.653Z</time>
      </trkpt>
      <trkpt lat="47.1459" lon="6.00392">
        <ele>393.377354</ele>
        <time>2022-01-16T16:54:58.219Z</time>
      </trkpt>
      <trkpt lat="47.14531" lon="6.00343">
        <ele>393.777516</ele>
        <time>2022-01-16T16:56:08.786Z</time>
      </trkpt>
      <trkpt lat="47.14508" lon="6.00285">
        <ele>394.041142</ele>
        <time>2022-01-16T16:56:53.769Z</time>
      </trkpt>
      <trkpt lat="47.14476" lon="6.0011">
        <ele>393.231588</ele>
        <time>2022-01-16T16:59:00.307Z</time>
      </trkpt>
      <trkpt lat="47.14471" lon="6.00097">
        <ele>393.135885</ele>
        <time>2022-01-16T16:59:11.080Z</time>
      </trkpt>
      <trkpt lat="47.1446" lon="6.00068">
        <ele>392.926946</ele>
        <time>2022-01-16T16:59:34.351Z</time>
      </trkpt>
      <trkpt lat="47.14441" lon="5.99945">
        <ele>392.773957</ele>
        <time>2022-01-16T17:01:01.363Z</time>
      </trkpt>
      <trkpt lat="47.14402" lon="5.99896">
        <ele>393.098389</ele>
        <time>2022-01-16T17:01:52.906Z</time>
      </trkpt>
      <trkpt lat="47.14383" lon="5.99862">
        <ele>393.285823</ele>
        <time>2022-01-16T17:02:23.752Z</time>
      </trkpt>
      <trkpt lat="47.14346" lon="5.99696">
        <ele>394.508941</ele>
        <time>2022-01-16T17:04:31.133Z</time>
      </trkpt>
      <trkpt lat="47.14335" lon="5.99668">
        <ele>394.815257</ele>
        <time>2022-01-16T17:04:54.679Z</time>
      </trkpt>
      <trkpt lat="47.14294" lon="5.99596">
        <ele>395.713923</ele>
        <time>2022-01-16T17:06:01.966Z</time>
      </trkpt>
      <trkpt lat="47.1429" lon="5.99571">
        <ele>395.957093</ele>
        <time>2022-01-16T17:06:19.452Z</time>
      </trkpt>
      <trkpt lat="47.14292" lon="5.99547">
        <ele>396.168066</ele>
        <time>2022-01-16T17:06:36.179Z</time>
      </trkpt>
      <trkpt lat="47.14313" lon="5.99497">
        <ele>396.018581</ele>
        <time>2022-01-16T17:07:16.699Z</time>
      </trkpt>
      <trkpt lat="47.14315" lon="5.99486">
        <ele>395.991376</ele>
        <time>2022-01-16T17:07:23.992Z</time>
      </trkpt>
      <trkpt lat="47.14315" lon="5.99479">
        <ele>395.973485</ele>
        <time>2022-01-16T17:07:29.056Z</time>
      </trkpt>
      <trkpt lat="47.14306" lon="5.99423">
        <ele>395.825763</ele>
        <time>2022-01-16T17:08:08.876Z</time>
      </trkpt>
      <trkpt lat="47.14305" lon="5.99361">
        <ele>395.669489</ele>
        <time>2022-01-16T17:08:51.417Z</time>
      </trkpt>
      <trkpt lat="47.14305" lon="5.99346">
        <ele>395.63246</ele>
        <time>2022-01-16T17:09:01.431Z</time>
      </trkpt>
      <trkpt lat="47.14295" lon="5.99293">
        <ele>395.479548</ele>
        <time>2022-01-16T17:09:39.665Z</time>
      </trkpt>
      <trkpt lat="47.14245" lon="5.99141">
        <ele>394.282011</ele>
        <time>2022-01-16T17:11:37.637Z</time>
      </trkpt>
      <trkpt lat="47.14174" lon="5.99028">
        <ele>393.566979</ele>
        <time>2022-01-16T17:13:24.540Z</time>
      </trkpt>
      <trkpt lat="47.14145" lon="5.98964">
        <ele>393.489766</ele>
        <time>2022-01-16T17:14:17.526Z</time>
      </trkpt>
      <trkpt lat="47.14118" lon="5.98934">
        <ele>393.44022</ele>
        <time>2022-01-16T17:14:51.177Z</time>
      </trkpt>
      <trkpt lat="47.14106" lon="5.98943">
        <ele>393.420511</ele>
        <time>2022-01-16T17:15:04.760Z</time>
      </trkpt>
      <trkpt lat="47.14101" lon="5.98935">
        <ele>393.409068</ele>
        <time>2022-01-16T17:15:12.910Z</time>
      </trkpt>
      <trkpt lat="47.14036" lon="5.98887">
        <ele>393.922345</ele>
        <time>2022-01-16T17:16:27.296Z</time>
      </trkpt>
      <trkpt lat="47.13991" lon="5.98886">
        <ele>394.517648</ele>
        <time>2022-01-16T17:17:13.970Z</time>
      </trkpt>
      <trkpt lat="47.13958" lon="5.98878">
        <ele>394.962003</ele>
        <time>2022-01-16T17:17:49.452Z</time>
      </trkpt>
      <trkpt lat="47.13948" lon="5.9888">
        <ele>395.093631</ele>
        <time>2022-01-16T17:17:59.720Z</time>
      </trkpt>
      <trkpt lat="47.13932" lon="5.98883">
        <ele>395.315252</ele>
        <time>2022-01-16T17:18:17.325Z</time>
      </trkpt>
      <trkpt lat="47.13926" lon="5.9889">
        <ele>395.413477</ele>
        <time>2022-01-16T17:18:25.228Z</time>
      </trkpt>
      <trkpt lat="47.13923" lon="5.98896">
        <ele>395.477887</ele>
        <time>2022-01-16T17:18:30.971Z</time>
      </trkpt>
      <trkpt lat="47.13923" lon="5.98886">
        <ele>395.562974</ele>
        <time>2022-01-16T17:18:37.496Z</time>
      </trkpt>
      <trkpt lat="47.13925" lon="5.98857">
        <ele>395.819656</ele>
        <time>2022-01-16T17:18:59.012Z</time>
      </trkpt>
      <trkpt lat="47.13927" lon="5.98815">
        <ele>396.146803</ele>
        <time>2022-01-16T17:19:29.988Z</time>
      </trkpt>
      <trkpt lat="47.13886" lon="5.98779">
        <ele>396.694929</ele>
        <time>2022-01-16T17:20:20.904Z</time>
      </trkpt>
      <trkpt lat="47.13873" lon="5.98776">
        <ele>396.834497</ele>
        <time>2022-01-16T17:20:34.023Z</time>
      </trkpt>
      <trkpt lat="47.13865" lon="5.98775">
        <ele>396.924751</ele>
        <time>2022-01-16T17:20:42.164Z</time>
      </trkpt>
      <trkpt lat="47.13826" lon="5.98791">
        <ele>397.389396</ele>
        <time>2022-01-16T17:21:24.049Z</time>
      </trkpt>
      <trkpt lat="47.13798" lon="5.98795">
        <ele>397.706942</ele>
        <time>2022-01-16T17:21:52.645Z</time>
      </trkpt>
      <trkpt lat="47.13796" lon="5.98766">
        <ele>397.804579</ele>
        <time>2022-01-16T17:22:12.610Z</time>
      </trkpt>
      <trkpt lat="47.13789" lon="5.98724">
        <ele>397.823514</ele>
        <time>2022-01-16T17:22:42.933Z</time>
      </trkpt>
      <trkpt lat="47.13791" lon="5.98695">
        <ele>397.836106</ele>
        <time>2022-01-16T17:23:03.044Z</time>
      </trkpt>
      <trkpt lat="47.13809" lon="5.98608">
        <ele>397.875723</ele>
        <time>2022-01-16T17:24:05.193Z</time>
      </trkpt>
      <trkpt lat="47.13809" lon="5.98589">
        <ele>397.883857</ele>
        <time>2022-01-16T17:24:18.125Z</time>
      </trkpt>
      <trkpt lat="47.13807" lon="5.98546">
        <ele>397.902439</ele>
        <time>2022-01-16T17:24:47.814Z</time>
      </trkpt>
      <trkpt lat="47.13821" lon="5.98515">
        <ele>397.908316</ele>
        <time>2022-01-16T17:25:13.851Z</time>
      </trkpt>
      <trkpt lat="47.13831" lon="5.98486">
        <ele>397.901279</ele>
        <time>2022-01-16T17:25:35.480Z</time>
      </trkpt>
      <trkpt lat="47.13837" lon="5.98461">
        <ele>397.895375</ele>
        <time>2022-01-16T17:25:53.876Z</time>
      </trkpt>
      <trkpt lat="47.13839" lon="5.98447">
        <ele>397.892186</ele>
        <time>2022-01-16T17:26:03.684Z</time>
      </trkpt>
      <trkpt lat="47.13834" lon="5.98415">
        <ele>397.884928</ele>
        <time>2022-01-16T17:26:26.315Z</time>
      </trkpt>
      <trkpt lat="47.13836" lon="5.98365">
        <ele>397.873867</ele>
        <time>2022-01-16T17:27:00.823Z</time>
      </trkpt>
      <trkpt lat="47.13862" lon="5.98309">
        <ele>397.8588</ele>
        <time>2022-01-16T17:27:47.813Z</time>
      </trkpt>
      <trkpt lat="47.13906" lon="5.98162">
        <ele>395.343669</ele>
        <time>2022-01-16T17:29:39.329Z</time>
      </trkpt>
      <trkpt lat="47.13905" lon="5.98099">
        <ele>394.166989</ele>
        <time>2022-01-16T17:30:25.137Z</time>
      </trkpt>
      <trkpt lat="47.1391" lon="5.98075">
        <ele>393.69706</ele>
        <time>2022-01-16T17:30:43.777Z</time>
      </trkpt>
      <trkpt lat="47.13952" lon="5.97939">
        <ele>388.528466</ele>
        <time>2022-01-16T17:32:38.006Z</time>
      </trkpt>
      <trkpt lat="47.1396" lon="5.97922">
        <ele>387.670709</ele>
        <time>2022-01-16T17:32:54.308Z</time>
      </trkpt>
      <trkpt lat="47.13992" lon="5.9789">
        <ele>385.350536</ele>
        <time>2022-01-16T17:33:38.306Z</time>
      </trkpt>
      <trkpt lat="47.14032" lon="5.97859">
        <ele>382.671878</ele>
        <time>2022-01-16T17:34:28.766Z</time>
      </trkpt>
      <trkpt lat="47.14031" lon="5.97783">
        <ele>381.542969</ele>
        <time>2022-01-16T17:35:25.034Z</time>
      </trkpt>
      <trkpt lat="47.14023" lon="5.97753">
        <ele>381.232133</ele>
        <time>2022-01-16T17:35:49.045Z</time>
      </trkpt>
      <trkpt lat="47.13993" lon="5.97744">
        <ele>380.796937</ele>
        <time>2022-01-16T17:36:21.597Z</time>
      </trkpt>
      <trkpt lat="47.13968" lon="5.97741">
        <ele>380.447647</ele>
        <time>2022-01-16T17:36:47.021Z</time>
      </trkpt>
      <trkpt lat="47.13953" lon="5.97735">
        <ele>380.238389</ele>
        <time>2022-01-16T17:37:02.158Z</time>
      </trkpt>
      <trkpt lat="47.1376" lon="5.97705">
        <ele>384.154461</ele>
        <time>2022-01-16T17:40:39.238Z</time>
      </trkpt>
      <trkpt lat="47.13566" lon="5.97644">
        <ele>389.293533</ele>
        <time>2022-01-16T17:44:17.760Z</time>
      </trkpt>
      <trkpt lat="47.1354" lon="5.97643">
        <ele>389.123218</ele>
        <time>2022-01-16T17:44:44.539Z</time>
      </trkpt>
      <trkpt lat="47.13533" lon="5.97644">
        <ele>388.90469</ele>
        <time>2022-01-16T17:44:52.300Z</time>
      </trkpt>
      <trkpt lat="47.13533" lon="5.97644">
        <ele>388.90469</ele>
        <time>2022-01-16T17:44:52.307Z</time>
      </trkpt>
      <trkpt lat="47.13515" lon="5.97644">
        <ele>388.393219</ele>
        <time>2022-01-16T17:45:10.317Z</time>
      </trkpt>
      <trkpt lat="47.13502" lon="5.97646">
        <ele>387.993129</ele>
        <time>2022-01-16T17:45:24.580Z</time>
      </trkpt>
      <trkpt lat="47.135" lon="5.97645">
        <ele>387.938087</ele>
        <time>2022-01-16T17:45:26.778Z</time>
      </trkpt>
      <trkpt lat="47.13495" lon="5.97639">
        <ele>387.756606</ele>
        <time>2022-01-16T17:45:33.071Z</time>
      </trkpt>
      <trkpt lat="47.1347" lon="5.9763">
        <ele>386.993092</ele>
        <time>2022-01-16T17:46:00.040Z</time>
      </trkpt>
      <trkpt lat="47.13446" lon="5.97625">
        <ele>386.301258</ele>
        <time>2022-01-16T17:46:25.336Z</time>
      </trkpt>
      <trkpt lat="47.13444" lon="5.97622">
        <ele>386.216246</ele>
        <time>2022-01-16T17:46:28.457Z</time>
      </trkpt>
      <trkpt lat="47.1344" lon="5.97615">
        <ele>386.034148</ele>
        <time>2022-01-16T17:46:35.149Z</time>
      </trkpt>
      <trkpt lat="47.13436" lon="5.97608">
        <ele>385.843748</ele>
        <time>2022-01-16T17:46:42.929Z</time>
      </trkpt>
      <trkpt lat="47.13421" lon="5.97584">
        <ele>385.206681</ele>
        <time>2022-01-16T17:47:06.638Z</time>
      </trkpt>
      <trkpt lat="47.13415" lon="5.97557">
        <ele>384.636217</ele>
        <time>2022-01-16T17:47:29.042Z</time>
      </trkpt>
      <trkpt lat="47.13406" lon="5.97524">
        <ele>382.801165</ele>
        <time>2022-01-16T17:47:56.295Z</time>
      </trkpt>
      <trkpt lat="47.13411" lon="5.97519">
        <ele>382.133126</ele>
        <time>2022-01-16T17:48:03.700Z</time>
      </trkpt>
      <trkpt lat="47.1342" lon="5.97505">
        <ele>380.741467</ele>
        <time>2022-01-16T17:48:17.672Z</time>
      </trkpt>
      <trkpt lat="47.1343" lon="5.9747">
        <ele>377.815303</ele>
        <time>2022-01-16T17:48:50.342Z</time>
      </trkpt>
      <trkpt lat="47.13457" lon="5.97377">
        <ele>370.10394</ele>
        <time>2022-01-16T17:50:15.508Z</time>
      </trkpt>
      <trkpt lat="47.13479" lon="5.97296">
        <ele>363.339887</ele>
        <time>2022-01-16T17:51:28.803Z</time>
      </trkpt>
      <trkpt lat="47.1348" lon="5.97285">
        <ele>362.348951</ele>
        <time>2022-01-16T17:51:39.718Z</time>
      </trkpt>
      <trkpt lat="47.13486" lon="5.9727">
        <ele>360.650798</ele>
        <time>2022-01-16T17:51:55.644Z</time>
      </trkpt>
      <trkpt lat="47.13498" lon="5.97191">
        <ele>353.167005</ele>
        <time>2022-01-16T17:53:04.370Z</time>
      </trkpt>
      <trkpt lat="47.13507" lon="5.97135">
        <ele>347.744945</ele>
        <time>2022-01-16T17:53:55.470Z</time>
      </trkpt>
      <trkpt lat="47.13512" lon="5.97114">
        <ele>345.733611</ele>
        <time>2022-01-16T17:54:14.125Z</time>
      </trkpt>
      <trkpt lat="47.13518" lon="5.97098">
        <ele>344.01162</ele>
        <time>2022-01-16T17:54:28.507Z</time>
      </trkpt>
      <trkpt lat="47.13526" lon="5.97089">
        <ele>342.680924</ele>
        <time>2022-01-16T17:54:43.903Z</time>
      </trkpt>
      <trkpt lat="47.13553" lon="5.97057">
        <ele>338.129899</ele>
        <time>2022-01-16T17:55:26.945Z</time>
      </trkpt>
      <trkpt lat="47.13578" lon="5.97037">
        <ele>334.725762</ele>
        <time>2022-01-16T17:56:02.037Z</time>
      </trkpt>
      <trkpt lat="47.13576" lon="5.97028">
        <ele>334.014145</ele>
        <time>2022-01-16T17:56:10.802Z</time>
      </trkpt>
      <trkpt lat="47.13602" lon="5.96885">
        <ele>321.941874</ele>
        <time>2022-01-16T17:58:15.256Z</time>
      </trkpt>
      <trkpt lat="47.13611" lon="5.96858">
        <ele>319.572437</ele>
        <time>2022-01-16T17:58:38.885Z</time>
      </trkpt>
      <trkpt lat="47.13615" lon="5.9685">
        <ele>318.77345</ele>
        <time>2022-01-16T17:58:47.558Z</time>
      </trkpt>
      <trkpt lat="47.13612" lon="5.96848">
        <ele>318.433789</ele>
        <time>2022-01-16T17:58:51.241Z</time>
      </trkpt>
      <trkpt lat="47.13568" lon="5.9682">
        <ele>313.84023</ele>
        <time>2022-01-16T17:59:48.940Z</time>
      </trkpt>
      <trkpt lat="47.13556" lon="5.96814">
        <ele>312.651892</ele>
        <time>2022-01-16T18:00:03.303Z</time>
      </trkpt>
      <trkpt lat="47.13508" lon="5.9681">
        <ele>308.139617</ele>
        <time>2022-01-16T18:01:01.369Z</time>
      </trkpt>
      <trkpt lat="47.13505" lon="5.96805">
        <ele>307.680543</ele>
        <time>2022-01-16T18:01:07.116Z</time>
      </trkpt>
      <trkpt lat="47.13507" lon="5.96803">
        <ele>307.463259</ele>
        <time>2022-01-16T18:01:10.013Z</time>
      </trkpt>
      <trkpt lat="47.1355" lon="5.96775">
        <ele>303.03833</ele>
        <time>2022-01-16T18:02:04.900Z</time>
      </trkpt>
      <trkpt lat="47.13565" lon="5.96755">
        <ele>301.18611</ele>
        <time>2022-01-16T18:02:27.315Z</time>
      </trkpt>
      <trkpt lat="47.13579" lon="5.96714">
        <ele>298.909354</ele>
        <time>2022-01-16T18:03:03.163Z</time>
      </trkpt>
      <trkpt lat="47.13572" lon="5.96719">
        <ele>298.347733</ele>
        <time>2022-01-16T18:03:12.324Z</time>
      </trkpt>
      <trkpt lat="47.13554" lon="5.9674">
        <ele>296.667619</ele>
        <time>2022-01-16T18:03:38.528Z</time>
      </trkpt>
      <trkpt lat="47.13527" lon="5.96739">
        <ele>294.691257</ele>
        <time>2022-01-16T18:04:09.968Z</time>
      </trkpt>
      <trkpt lat="47.13443" lon="5.96684">
        <ele>288.110407</ele>
        <time>2022-01-16T18:05:55.396Z</time>
      </trkpt>
      <trkpt lat="47.13384" lon="5.9665">
        <ele>284.890174</ele>
        <time>2022-01-16T18:07:05.587Z</time>
      </trkpt>
      <trkpt lat="47.1338" lon="5.96644">
        <ele>284.58074</ele>
        <time>2022-01-16T18:07:12.681Z</time>
      </trkpt>
      <trkpt lat="47.1338" lon="5.96644">
        <ele>284.58074</ele>
        <time>2022-01-16T18:07:12.928Z</time>
      </trkpt>
      <trkpt lat="47.13393" lon="5.96599">
        <ele>282.868649</ele>
        <time>2022-01-16T18:07:49.877Z</time>
      </trkpt>
      <trkpt lat="47.13397" lon="5.96579">
        <ele>282.164185</ele>
        <time>2022-01-16T18:08:05.071Z</time>
      </trkpt>
      <trkpt lat="47.13397" lon="5.96564">
        <ele>281.648822</ele>
        <time>2022-01-16T18:08:16.048Z</time>
      </trkpt>
      <trkpt lat="47.1341" lon="5.96541">
        <ele>280.593264</ele>
        <time>2022-01-16T18:08:38.887Z</time>
      </trkpt>
      <trkpt lat="47.13441" lon="5.96454">
        <ele>278.302063</ele>
        <time>2022-01-16T18:09:50.628Z</time>
      </trkpt>
      <trkpt lat="47.13499" lon="5.96387">
        <ele>276.802084</ele>
        <time>2022-01-16T18:11:07.301Z</time>
      </trkpt>
      <trkpt lat="47.13556" lon="5.9631">
        <ele>275.339971</ele>
        <time>2022-01-16T18:12:26.736Z</time>
      </trkpt>
      <trkpt lat="47.13616" lon="5.96189">
        <ele>274.912643</ele>
        <time>2022-01-16T18:14:10.252Z</time>
      </trkpt>
      <trkpt lat="47.13639" lon="5.9614">
        <ele>274.745921</ele>
        <time>2022-01-16T18:14:50.266Z</time>
      </trkpt>
      <trkpt lat="47.13665" lon="5.96086">
        <ele>274.673735</ele>
        <time>2022-01-16T18:15:35.566Z</time>
      </trkpt>
      <trkpt lat="47.13695" lon="5.96042">
        <ele>274.832705</ele>
        <time>2022-01-16T18:16:18.217Z</time>
      </trkpt>
      <trkpt lat="47.13737" lon="5.95998">
        <ele>275.026603</ele>
        <time>2022-01-16T18:17:10.434Z</time>
      </trkpt>
      <trkpt lat="47.13786" lon="5.95895">
        <ele>275.294848</ele>
        <time>2022-01-16T18:18:38.238Z</time>
      </trkpt>
      <trkpt lat="47.13817" lon="5.95871">
        <ele>275.294848</ele>
        <time>2022-01-16T18:19:14.502Z</time>
      </trkpt>
      <trkpt lat="47.13865" lon="5.95862">
        <ele>275.294848</ele>
        <time>2022-01-16T18:20:03.984Z</time>
      </trkpt>
      <trkpt lat="47.13876" lon="5.95854">
        <ele>275.294848</ele>
        <time>2022-01-16T18:20:17.058Z</time>
      </trkpt>
      <trkpt lat="47.13909" lon="5.95821">
        <ele>275.294848</ele>
        <time>2022-01-16T18:20:56.970Z</time>
      </trkpt>
      <trkpt lat="47.13911" lon="5.95819">
        <ele>275.294848</ele>
        <time>2022-01-16T18:20:59.746Z</time>
      </trkpt>
    </trkseg>
  </trk>
</gpx>